WetterOnline ( http://www.wetteronline.de )

Wetter aktuell Waibstadt

Aktuelles Wetter: Waibstadt (237m)

6-stündlich | Neueste Meldungen
Ortszeit Temperatur Wetter
Mo, 23.04. 20:00 16.3° C bewölkt
Mo, 23.04. 14:00 17.7° C bedeckt
Mo, 23.04. 8:00 15.3° C bewölkt
Mo, 23.04. 2:00 18.9° C bewölkt
So, 22.04. 20:00 23.2° C wolkig
So, 22.04. 14:00 26.1° C leicht bewölkt
So, 22.04. 8:00 14.6° C wolkenlos
So, 22.04. 2:00 14.8° C wolkenlos
Ortszeit Temperatur Wetter
Di, 24.04. 0:30 13.7° C wolkig
Di, 24.04. 0:10 13.6° C wolkig
Di, 24.04. 0:00 13.7° C wolkig
Mo, 23.04. 23:50 13.7° C wolkig
Mo, 23.04. 23:40 13.7° C leicht bewölkt
Mo, 23.04. 23:30 13.8° C leicht bewölkt
Mo, 23.04. 23:00 14.1° C wolkenlos
Mo, 23.04. 22:30 14.4° C wolkig
Mo, 23.04. 22:00 14.6° C wolkig
Mo, 23.04. 21:30 14.9° C wolkig
Ortszeit Relative Feuchte Sichtweite
Mo, 23.04. 20:00 79% 30 km
Mo, 23.04. 14:00 76% 30 km
Mo, 23.04. 8:00 70% 30 km
Mo, 23.04. 2:00 46% 55 km
So, 22.04. 20:00 40% 45 km
So, 22.04. 14:00 43% 30 km
So, 22.04. 8:00 81% 10 km
So, 22.04. 2:00 81% 15 km
Ortszeit Relative Feuchte Sichtweite
Di, 24.04. 0:30 92% 16 km
Di, 24.04. 0:10 92% -
Di, 24.04. 0:00 92% 18 km
Mo, 23.04. 23:50 92% -
Mo, 23.04. 23:40 92% -
Mo, 23.04. 23:30 90% 20 km
Mo, 23.04. 23:00 88% 26 km
Mo, 23.04. 22:30 87% 30 km
Mo, 23.04. 22:00 87% 26 km
Mo, 23.04. 21:30 87% 27 km
Ortszeit Niederschlagsmenge Niederschlagsart
Mo, 23.04. 20:00 2 l/m2 in 12 Std. Regen
Mo, 23.04. 14:00 2 l/m2 in 6 Std. Regen
Mo, 23.04. 8:00 0.0 l/m2 in 12 Std. -
Mo, 23.04. 2:00 0.0 l/m2 in 6 Std. -
So, 22.04. 20:00 0.0 l/m2 in 12 Std. -
So, 22.04. 14:00 0.0 l/m2 in 6 Std. -
So, 22.04. 8:00 0.0 l/m2 in 12 Std. -
So, 22.04. 2:00 0.0 l/m2 in 6 Std. -
Ortszeit Niederschlagsmenge Niederschlagsart
Di, 24.04. 0:30 0.0 l/m2 in 1 Std. -
Di, 24.04. 0:10 keine Meldung -
Di, 24.04. 0:00 0.0 l/m2 in 1 Std. -
Mo, 23.04. 23:50 keine Meldung -
Mo, 23.04. 23:40 keine Meldung -
Mo, 23.04. 23:30 0.0 l/m2 in 1 Std. -
Mo, 23.04. 23:00 0.0 l/m2 in 1 Std. -
Mo, 23.04. 22:30 0.0 l/m2 in 1 Std. -
Mo, 23.04. 22:00 0.0 l/m2 in 1 Std. -
Mo, 23.04. 21:30 0.0 l/m2 in 1 Std. -
Ortszeit Stärke Spitze Richtung
km/h Bft. km/h Grad Sektor
Mo, 23.04. 20:00 22 4 52 230° SW
Mo, 23.04. 14:00 20 4 37 240° SW
Mo, 23.04. 8:00 2 1 20 20° N
Mo, 23.04. 2:00 14 3 25 230° SW
So, 22.04. 20:00 11 2 37 260° W
So, 22.04. 14:00 7 2 25 220° SW
So, 22.04. 8:00 4 1 14 90° O
So, 22.04. 2:00 7 2 11 70° O
Ortszeit Stärke Spitze Richtung
km/h Bft. km/h Grad Sektor
Di, 24.04. 0:30 22 4 32 240° SW
Di, 24.04. 0:10 18 3 - 240° SW
Di, 24.04. 0:00 18 3 36 240° SW
Mo, 23.04. 23:50 18 3 - 240° SW
Mo, 23.04. 23:40 17 3 - 240° SW
Mo, 23.04. 23:30 22 4 36 240° SW
Mo, 23.04. 23:00 22 4 36 240° SW
Mo, 23.04. 22:30 22 4 36 240° SW
Mo, 23.04. 22:00 25 4 40 240° SW
Mo, 23.04. 21:30 25 4 36 230° SW
Ortszeit Untergrenze Bedeckung Gattung
total tief tief mittel hoch
Mo, 23.04. 20:00 1800 m 8/8 4/8 - - -
Mo, 23.04. 14:00 3600 m 8/8 8/8 - - -
Mo, 23.04. 8:00 1800 m 7/8 7/8 - - -
Mo, 23.04. 2:00 4500 m 7/8 7/8 - - -
So, 22.04. 20:00 8700 m 8/8 0/8 - - -
So, 22.04. 14:00 9000 m 5/8 0/8 - - -
So, 22.04. 8:00 - 0/8 0/8 - - -
So, 22.04. 2:00 - 0/8 0/8 - - -
Ortszeit Bedeckungsgrad in Achtel und Wolkenuntergrenze
Di, 24.04. 0:30 8(9000m)
Di, 24.04. 0:10 1(1800m) 7(9000m)
Di, 24.04. 0:00 1(720m) 5(1800m) 6(9000m)
Mo, 23.04. 23:50 1(720m) 5(1800m) 6(9000m)
Mo, 23.04. 23:40 2(1080m) 3(1800m) 5(9000m)
Mo, 23.04. 23:30 2(8700m) 4(9000m) 6(9000m)
Mo, 23.04. 23:00 1(2700m)
Mo, 23.04. 22:30 2(1230m) 6(9000m) 7(9000m)
Mo, 23.04. 22:00 4(8100m) 7(9000m) 8(9000m)
Mo, 23.04. 21:30 8(8700m) 8(10500m) 8(9000m)
Ortszeit Luftdruck NN (hPa) Tendenz (hPa in 3 Std.)
Mo, 23.04. 20:00 1017 + 1,6
Mo, 23.04. 14:00 1017 - 0,3
Mo, 23.04. 8:00 1015 + 0,3
Mo, 23.04. 2:00 1014 + 0,5
So, 22.04. 20:00 1012 - 0,1
So, 22.04. 14:00 1014 - 1,1
So, 22.04. 8:00 1016 - 0,2
So, 22.04. 2:00 1017 - 0,2
Ortszeit Luftdruck NN (hPa) Tendenz (hPa in 3 Std.)
Di, 24.04. 0:30 1019 + 1,2
Di, 24.04. 0:10 1019 keine Meldung
Di, 24.04. 0:00 1019 + 1,3
Mo, 23.04. 23:50 1019 keine Meldung
Mo, 23.04. 23:40 1018 keine Meldung
Mo, 23.04. 23:30 1018 + 1,3
Mo, 23.04. 23:00 1018 + 1,1
Mo, 23.04. 22:30 1018 + 0,9
Mo, 23.04. 22:00 1017 + 1,0
Mo, 23.04. 21:30 1017 + 1,0
Ortszeit Schneehöhe (cm)
Mo, 23.04. 20:00 0
Mo, 23.04. 14:00 0
Mo, 23.04. 8:00 0
Mo, 23.04. 2:00 0
So, 22.04. 20:00 0
So, 22.04. 14:00 0
So, 22.04. 8:00 0
So, 22.04. 2:00 0
Ortszeit Schneehöhe (cm)
Di, 24.04. 0:30 0
Di, 24.04. 0:10 0
Di, 24.04. 0:00 0
Mo, 23.04. 23:50 0
Mo, 23.04. 23:40 0
Mo, 23.04. 23:30 0
Mo, 23.04. 23:00 0
Mo, 23.04. 22:30 0
Mo, 23.04. 22:00 0
Mo, 23.04. 21:30 0
Link zu dieser Seite / Seite empfehlen

Das Wetter in ...